EVA006 RCTP-KLAX
Flight info
| Callsign | EVA006 |
|---|---|
| Flight time | N/A |
| Altitude | 31000 |
| Route | MOLKA1C MOLKA M750 MUKEP Y891 OVSUN/N0503F320 Y893 IGMIS/N0503F310 Y57 POROT Y809 IDLAN Y812 ADNAP/N0498F330 OTR5 KALNA DCT 42N160E 43N170E 41N180E 39N170W/N0483F350 38N160W 37N150W 36N140W 35N130W/N0489F370 DCT AUDIA DCT SNAXX RYDRR2 |
| Aircraft | B77W/H-SDE1E2E3FGHIJ2J3J4J5M1RWXY/LB1D1 |
Departure
| Time | 2026-05-04 11:13 |
|---|---|
| Airport | Taiwan Taoyuan International Airport (RCTP) |
Arrival
| Time | N/A |
|---|---|
| Airport | Los Angeles International Airport (KLAX) |
| Time | Latitude | Longitude | Altitude | Speed | Heading |
|---|---|---|---|---|---|
| 2026-05-04 10:44 | 25.07724 | 121.23605 | 88 ft | 0 kts | 319° |
| 2026-05-04 11:02 | 25.07717 | 121.23611 | 92 ft | 4 kts | 324° |
| 2026-05-04 11:05 | 25.07539 | 121.23555 | 92 ft | 0 kts | 49° |
| 2026-05-04 11:06 | 25.07540 | 121.23556 | 92 ft | 2 kts | 49° |
| 2026-05-04 11:06 | 25.07576 | 121.23603 | 90 ft | 11 kts | 49° |
| 2026-05-04 11:08 | 25.07237 | 121.23495 | 94 ft | 16 kts | 228° |
| 2026-05-04 11:10 | 25.06668 | 121.22773 | 97 ft | 18 kts | 229° |
| 2026-05-04 11:12 | 25.06131 | 121.22413 | 100 ft | 12 kts | 65° |
| 2026-05-04 11:12 | 25.06214 | 121.22514 | 100 ft | 40 kts | 48° |
| 2026-05-04 11:12 | 25.06565 | 121.22966 | 93 ft | 113 kts | 47° |
| 2026-05-04 11:12 | 25.07228 | 121.23804 | 91 ft | 174 kts | 49° |
| 2026-05-04 11:13 | 25.08094 | 121.24875 | 439 ft | 187 kts | 51° |
| 2026-05-04 11:13 | 25.08934 | 121.25945 | 1209 ft | 183 kts | 53° |
| 2026-05-04 11:13 | 25.09787 | 121.27081 | 1459 ft | 202 kts | 54° |
| 2026-05-04 11:13 | 25.10704 | 121.28310 | 1735 ft | 219 kts | 53° |
| 2026-05-04 11:14 | 25.11718 | 121.29633 | 2130 ft | 230 kts | 51° |
| 2026-05-04 11:14 | 25.12834 | 121.30941 | 2669 ft | 237 kts | 50° |
| 2026-05-04 11:14 | 25.13994 | 121.32271 | 3210 ft | 244 kts | 50° |
| 2026-05-04 11:16 | 25.23282 | 121.42923 | 7156 ft | 307 kts | 44° |
| 2026-05-04 11:16 | 25.24778 | 121.44632 | 7669 ft | 313 kts | 45° |
| 2026-05-04 11:16 | 25.26280 | 121.46364 | 8312 ft | 313 kts | 44° |
| 2026-05-04 11:17 | 25.27795 | 121.48115 | 8804 ft | 317 kts | 44° |
| 2026-05-04 11:17 | 25.29082 | 121.50097 | 9132 ft | 323 kts | 71° |
| 2026-05-04 11:19 | 25.31786 | 121.68440 | 10851 ft | 405 kts | 77° |
| 2026-05-04 11:19 | 25.32407 | 121.71521 | 11401 ft | 415 kts | 78° |
| 2026-05-04 11:19 | 25.33028 | 121.74667 | 12020 ft | 423 kts | 78° |
| 2026-05-04 11:19 | 25.33651 | 121.77860 | 12612 ft | 427 kts | 78° |
| 2026-05-04 11:20 | 25.34275 | 121.81081 | 13211 ft | 431 kts | 78° |
| 2026-05-04 11:20 | 25.34907 | 121.84349 | 13710 ft | 438 kts | 78° |
| 2026-05-04 11:20 | 25.35546 | 121.87656 | 14238 ft | 442 kts | 78° |
| 2026-05-04 11:20 | 25.36191 | 121.90994 | 14791 ft | 446 kts | 78° |
| 2026-05-04 11:22 | 25.40855 | 122.15227 | 18295 ft | 476 kts | 78° |
| 2026-05-04 11:22 | 25.41544 | 122.18822 | 18739 ft | 480 kts | 78° |
| 2026-05-04 11:23 | 25.42302 | 122.22433 | 19179 ft | 482 kts | 73° |
| 2026-05-04 11:23 | 25.43351 | 122.25967 | 19613 ft | 485 kts | 69° |
| 2026-05-04 11:24 | 25.50818 | 122.47218 | 22173 ft | 502 kts | 69° |
| 2026-05-04 11:25 | 25.52032 | 122.50858 | 22578 ft | 506 kts | 69° |
| 2026-05-04 11:25 | 25.53251 | 122.54522 | 22961 ft | 509 kts | 70° |
| 2026-05-04 11:25 | 25.54467 | 122.58180 | 23238 ft | 516 kts | 69° |
| 2026-05-04 11:26 | 25.56969 | 122.65694 | 23934 ft | 521 kts | 70° |
| 2026-05-04 11:27 | 25.65887 | 122.92492 | 25987 ft | 540 kts | 69° |
| 2026-05-04 11:28 | 25.67209 | 122.96401 | 26273 ft | 542 kts | 69° |
| 2026-05-04 11:28 | 25.68540 | 123.00336 | 26562 ft | 546 kts | 68° |
| 2026-05-04 11:28 | 25.69877 | 123.04292 | 26766 ft | 550 kts | 68° |
| 2026-05-04 11:28 | 25.71224 | 123.08286 | 27022 ft | 553 kts | 69° |
| 2026-05-04 11:29 | 25.72570 | 123.12290 | 27309 ft | 555 kts | 69° |
| 2026-05-04 11:29 | 25.73918 | 123.16310 | 27581 ft | 557 kts | 69° |
| 2026-05-04 11:29 | 25.75267 | 123.20335 | 27886 ft | 559 kts | 69° |
| 2026-05-04 11:29 | 25.76625 | 123.24395 | 28131 ft | 561 kts | 69° |
| 2026-05-04 11:31 | 25.86226 | 123.53155 | 29966 ft | 567 kts | 66° |
| 2026-05-04 11:33 | 26.07681 | 123.69358 | 31073 ft | 547 kts | 18° |
| 2026-05-04 11:33 | 26.14547 | 123.72951 | 31155 ft | 542 kts | 19° |
| 2026-05-04 11:34 | 26.21352 | 123.76539 | 31168 ft | 541 kts | 19° |
| 2026-05-04 11:34 | 26.28166 | 123.80118 | 31187 ft | 542 kts | 19° |
| 2026-05-04 11:35 | 26.35009 | 123.83709 | 31177 ft | 544 kts | 19° |
| 2026-05-04 11:35 | 26.41874 | 123.87319 | 31176 ft | 546 kts | 19° |
| 2026-05-04 11:36 | 26.48712 | 123.90921 | 31193 ft | 547 kts | 19° |
| 2026-05-04 11:36 | 26.55611 | 123.94561 | 31182 ft | 549 kts | 19° |
| 2026-05-04 11:37 | 26.62532 | 123.98217 | 31178 ft | 549 kts | 19° |
| 2026-05-04 11:37 | 26.65891 | 124.00277 | 31166 ft | 556 kts | 31° |
| 2026-05-04 11:37 | 26.68752 | 124.03226 | 31181 ft | 563 kts | 47° |
| 2026-05-04 11:38 | 26.73625 | 124.10113 | 31187 ft | 564 kts | 49° |
| 2026-05-04 11:38 | 26.78547 | 124.16975 | 31178 ft | 565 kts | 47° |
| 2026-05-04 11:39 | 26.83539 | 124.23703 | 31173 ft | 565 kts | 47° |
| 2026-05-04 11:41 | 27.01138 | 124.47400 | 31179 ft | 566 kts | 47° |
| 2026-05-04 11:41 | 27.06170 | 124.54178 | 31207 ft | 565 kts | 47° |
| 2026-05-04 11:42 | 27.11238 | 124.61014 | 31197 ft | 572 kts | 47° |
| 2026-05-04 11:42 | 27.16332 | 124.67903 | 31185 ft | 574 kts | 47° |
| 2026-05-04 11:43 | 27.21389 | 124.74758 | 31169 ft | 572 kts | 47° |
| 2026-05-04 11:43 | 27.26434 | 124.81608 | 31174 ft | 569 kts | 47° |
| 2026-05-04 11:44 | 27.31517 | 124.88513 | 31195 ft | 575 kts | 47° |
| 2026-05-04 11:44 | 27.36608 | 124.95444 | 31176 ft | 575 kts | 47° |
| 2026-05-04 11:45 | 27.41707 | 125.02390 | 31206 ft | 573 kts | 47° |
| 2026-05-04 11:45 | 27.46820 | 125.09288 | 31189 ft | 575 kts | 46° |
| 2026-05-04 11:46 | 27.51940 | 125.16180 | 31176 ft | 578 kts | 46° |
| 2026-05-04 11:46 | 27.57103 | 125.23157 | 31182 ft | 579 kts | 47° |
| 2026-05-04 11:47 | 27.62243 | 125.30128 | 31181 ft | 576 kts | 46° |
| 2026-05-04 11:47 | 27.67365 | 125.37086 | 31172 ft | 576 kts | 46° |
| 2026-05-04 11:48 | 27.72478 | 125.44038 | 31170 ft | 575 kts | 46° |
| 2026-05-04 11:48 | 27.77588 | 125.50998 | 31176 ft | 576 kts | 46° |
| 2026-05-04 11:49 | 27.82703 | 125.57975 | 31168 ft | 577 kts | 46° |
| 2026-05-04 11:49 | 27.87787 | 125.64923 | 31176 ft | 578 kts | 46° |
| 2026-05-04 11:50 | 27.92923 | 125.71953 | 31170 ft | 578 kts | 46° |
| 2026-05-04 11:50 | 27.98051 | 125.78983 | 31166 ft | 580 kts | 46° |
| 2026-05-04 11:51 | 28.03181 | 125.86029 | 31184 ft | 580 kts | 46° |
| 2026-05-04 11:51 | 28.08321 | 125.93100 | 31180 ft | 581 kts | 46° |
| 2026-05-04 11:52 | 28.13453 | 126.00170 | 31183 ft | 582 kts | 46° |
| 2026-05-04 11:52 | 28.18560 | 126.07219 | 31176 ft | 582 kts | 46° |
| 2026-05-04 11:53 | 28.23696 | 126.14320 | 31172 ft | 583 kts | 46° |
| 2026-05-04 11:53 | 28.28837 | 126.21440 | 31199 ft | 583 kts | 46° |
| 2026-05-04 11:55 | 28.49327 | 126.49934 | 31172 ft | 582 kts | 47° |
| 2026-05-04 11:56 | 28.54430 | 126.57061 | 31168 ft | 581 kts | 47° |
| 2026-05-04 11:56 | 28.59540 | 126.64210 | 31171 ft | 581 kts | 47° |
| 2026-05-04 11:57 | 28.64636 | 126.71350 | 31177 ft | 582 kts | 47° |
| 2026-05-04 11:57 | 28.69738 | 126.78511 | 31164 ft | 582 kts | 47° |
| 2026-05-04 11:58 | 28.74838 | 126.85682 | 31166 ft | 582 kts | 47° |
| 2026-05-04 11:58 | 28.79934 | 126.92861 | 31183 ft | 582 kts | 47° |
| 2026-05-04 11:59 | 28.84995 | 127.00000 | 31164 ft | 583 kts | 47° |
| 2026-05-04 11:59 | 28.90089 | 127.07201 | 31171 ft | 582 kts | 47° |
| 2026-05-04 12:00 | 28.94316 | 127.13185 | 31203 ft | 582 kts | 47° |
| 2026-05-04 12:00 | 28.99407 | 127.20403 | 31181 ft | 584 kts | 47° |
| 2026-05-04 12:01 | 29.04511 | 127.27653 | 31167 ft | 585 kts | 47° |
| 2026-05-04 12:02 | 29.22368 | 127.53116 | 31161 ft | 587 kts | 47° |
| 2026-05-04 12:03 | 29.27437 | 127.60375 | 31176 ft | 587 kts | 47° |
| 2026-05-04 12:03 | 29.32540 | 127.67695 | 31169 ft | 587 kts | 47° |
| 2026-05-04 12:04 | 29.37637 | 127.75019 | 31164 ft | 587 kts | 47° |
| 2026-05-04 12:04 | 29.42720 | 127.82337 | 31176 ft | 587 kts | 47° |
| 2026-05-04 12:05 | 29.47805 | 127.89670 | 31165 ft | 586 kts | 47° |
| 2026-05-04 12:05 | 29.52875 | 127.96993 | 31142 ft | 585 kts | 47° |
| 2026-05-04 12:06 | 29.57903 | 128.04259 | 31189 ft | 585 kts | 47° |
| 2026-05-04 12:06 | 29.62964 | 128.11578 | 31167 ft | 584 kts | 47° |
| 2026-05-04 12:07 | 29.68014 | 128.18898 | 31162 ft | 584 kts | 47° |
| 2026-05-04 12:07 | 29.73060 | 128.26228 | 31183 ft | 583 kts | 47° |
| 2026-05-04 12:08 | 29.78089 | 128.33546 | 31161 ft | 583 kts | 47° |
| 2026-05-04 12:08 | 29.83125 | 128.40889 | 31154 ft | 583 kts | 47° |
| 2026-05-04 12:09 | 29.88115 | 128.48176 | 31202 ft | 582 kts | 48° |
| 2026-05-04 12:09 | 29.93116 | 128.55494 | 31166 ft | 580 kts | 48° |
| 2026-05-04 12:10 | 29.98096 | 128.62795 | 31143 ft | 577 kts | 48° |
| 2026-05-04 12:10 | 30.03053 | 128.70075 | 31145 ft | 575 kts | 48° |
| 2026-05-04 12:11 | 30.07962 | 128.77294 | 31153 ft | 576 kts | 48° |
| 2026-05-04 12:11 | 30.12911 | 128.84588 | 31160 ft | 577 kts | 48° |
| 2026-05-04 12:12 | 30.17864 | 128.91901 | 31169 ft | 578 kts | 48° |
| 2026-05-04 12:12 | 30.22814 | 128.99225 | 31158 ft | 577 kts | 48° |
| 2026-05-04 12:14 | 30.42471 | 129.28422 | 31149 ft | 575 kts | 49° |
| 2026-05-04 12:15 | 30.47387 | 129.35758 | 31143 ft | 576 kts | 49° |
| 2026-05-04 12:15 | 30.52305 | 129.43110 | 31155 ft | 576 kts | 49° |
| 2026-05-04 12:16 | 30.57224 | 129.50482 | 31137 ft | 577 kts | 49° |
| 2026-05-04 12:16 | 30.62120 | 129.57828 | 31154 ft | 578 kts | 50° |
| 2026-05-04 12:17 | 30.67037 | 129.65223 | 31142 ft | 578 kts | 49° |
| 2026-05-04 12:17 | 30.71954 | 129.72632 | 31146 ft | 578 kts | 49° |
| 2026-05-04 12:18 | 30.76862 | 129.80041 | 31156 ft | 578 kts | 50° |
| 2026-05-04 12:18 | 30.81740 | 129.87416 | 31138 ft | 578 kts | 49° |
| 2026-05-04 12:19 | 30.86451 | 129.95014 | 31141 ft | 580 kts | 56° |
| 2026-05-04 12:19 | 30.90678 | 130.03012 | 31150 ft | 581 kts | 58° |
| 2026-05-04 12:20 | 30.94867 | 130.11051 | 31137 ft | 580 kts | 57° |
| 2026-05-04 12:20 | 30.99091 | 130.19076 | 31138 ft | 580 kts | 57° |
| 2026-05-04 12:21 | 31.03337 | 130.27094 | 31119 ft | 581 kts | 57° |
| 2026-05-04 12:21 | 31.07556 | 130.35072 | 31136 ft | 581 kts | 57° |
| 2026-05-04 12:22 | 31.11802 | 130.43128 | 31137 ft | 582 kts | 57° |
| 2026-05-04 12:22 | 31.16045 | 130.51198 | 31129 ft | 583 kts | 57° |
| 2026-05-04 12:23 | 31.20262 | 130.59224 | 31162 ft | 582 kts | 57° |
| 2026-05-04 12:23 | 31.24483 | 130.67304 | 31151 ft | 583 kts | 57° |
| 2026-05-04 12:24 | 31.28716 | 130.75413 | 31136 ft | 584 kts | 58° |
| 2026-05-04 12:24 | 31.32953 | 130.83535 | 31131 ft | 585 kts | 58° |
| 2026-05-04 12:25 | 31.37182 | 130.91661 | 31115 ft | 585 kts | 57° |
| 2026-05-04 12:25 | 31.41404 | 130.99797 | 31130 ft | 585 kts | 57° |
| 2026-05-04 12:26 | 31.45623 | 131.07941 | 31131 ft | 585 kts | 57° |
| 2026-05-04 12:26 | 31.49847 | 131.16115 | 31156 ft | 586 kts | 58° |
| 2026-05-04 12:27 | 31.54047 | 131.24258 | 31128 ft | 587 kts | 58° |
| 2026-05-04 12:27 | 31.58270 | 131.32465 | 31122 ft | 587 kts | 58° |
| 2026-05-04 12:28 | 31.62484 | 131.40660 | 31148 ft | 587 kts | 58° |
| 2026-05-04 12:28 | 31.66688 | 131.48877 | 31107 ft | 587 kts | 58° |
| 2026-05-04 12:29 | 31.70889 | 131.57108 | 31058 ft | 588 kts | 58° |
| 2026-05-04 12:29 | 31.75093 | 131.65362 | 31101 ft | 589 kts | 58° |
| 2026-05-04 12:30 | 31.79266 | 131.73571 | 31101 ft | 589 kts | 59° |
| 2026-05-04 12:30 | 31.83462 | 131.81844 | 31092 ft | 588 kts | 58° |
| 2026-05-04 12:31 | 31.87653 | 131.90123 | 31111 ft | 589 kts | 59° |
| 2026-05-04 12:31 | 31.91842 | 131.98419 | 31114 ft | 590 kts | 59° |
| 2026-05-04 12:32 | 31.98120 | 132.10884 | 31118 ft | 590 kts | 59° |
| 2026-05-04 12:33 | 32.02299 | 132.19206 | 31105 ft | 590 kts | 59° |
| 2026-05-04 12:33 | 32.06478 | 132.27546 | 31089 ft | 590 kts | 59° |
| 2026-05-04 12:34 | 32.10652 | 132.35893 | 31093 ft | 591 kts | 59° |
| 2026-05-04 12:34 | 32.14636 | 132.44384 | 31095 ft | 591 kts | 63° |
| 2026-05-04 12:35 | 32.18298 | 132.53082 | 31133 ft | 592 kts | 64° |
| 2026-05-04 12:35 | 32.21937 | 132.61824 | 31080 ft | 593 kts | 64° |
| 2026-05-04 12:36 | 32.25588 | 132.70513 | 31112 ft | 594 kts | 64° |
| 2026-05-04 12:36 | 32.29285 | 132.79276 | 31110 ft | 595 kts | 64° |
| 2026-05-04 12:37 | 32.32975 | 132.88040 | 31097 ft | 596 kts | 64° |
| 2026-05-04 12:37 | 32.36660 | 132.96829 | 31097 ft | 596 kts | 64° |
| 2026-05-04 12:38 | 32.40312 | 133.05563 | 31090 ft | 597 kts | 64° |
| 2026-05-04 12:38 | 32.43985 | 133.14369 | 31103 ft | 596 kts | 64° |
| 2026-05-04 12:39 | 32.47656 | 133.23191 | 31079 ft | 597 kts | 64° |
| 2026-05-04 12:39 | 32.51320 | 133.32020 | 31090 ft | 596 kts | 64° |
| 2026-05-04 12:40 | 32.54969 | 133.40833 | 31097 ft | 596 kts | 64° |
| 2026-05-04 12:40 | 32.58631 | 133.49665 | 31118 ft | 597 kts | 64° |
| 2026-05-04 12:41 | 32.62320 | 133.58496 | 31099 ft | 598 kts | 64° |
| 2026-05-04 12:41 | 32.65989 | 133.67371 | 31076 ft | 598 kts | 64° |
| 2026-05-04 12:42 | 32.69585 | 133.76203 | 31093 ft | 599 kts | 64° |
| 2026-05-04 12:42 | 32.73207 | 133.85122 | 31065 ft | 600 kts | 65° |
| 2026-05-04 12:43 | 32.76835 | 133.94051 | 31122 ft | 600 kts | 64° |
| 2026-05-04 12:43 | 32.80464 | 134.03003 | 31056 ft | 601 kts | 64° |
| 2026-05-04 12:44 | 32.83590 | 134.12196 | 31082 ft | 598 kts | 76° |
| 2026-05-04 12:44 | 32.85886 | 134.21696 | 31100 ft | 598 kts | 77° |
| 2026-05-04 12:45 | 32.88172 | 134.31221 | 31086 ft | 599 kts | 76° |
| 2026-05-04 12:45 | 32.90509 | 134.40684 | 31082 ft | 600 kts | 76° |
| 2026-05-04 12:46 | 32.92876 | 134.50201 | 31089 ft | 600 kts | 76° |
| 2026-05-04 12:46 | 32.95231 | 134.59734 | 31082 ft | 600 kts | 76° |
| 2026-05-04 12:47 | 32.97575 | 134.69283 | 31076 ft | 600 kts | 76° |
| 2026-05-04 12:47 | 32.99848 | 134.78844 | 31081 ft | 600 kts | 79° |
| 2026-05-04 12:48 | 33.01160 | 134.88544 | 31085 ft | 595 kts | 88° |
| 2026-05-04 12:48 | 33.02120 | 134.98341 | 31076 ft | 596 kts | 88° |
| 2026-05-04 12:49 | 33.02983 | 135.06498 | 31067 ft | 596 kts | 87° |
| 2026-05-04 12:49 | 33.04061 | 135.16292 | 31072 ft | 596 kts | 87° |
| 2026-05-04 12:50 | 33.05111 | 135.26102 | 31069 ft | 596 kts | 87° |